createdAt,value
2017-03-15T00:00:06.863Z,69.04
2017-03-15T00:01:06.593Z,68.94
2017-03-15T00:02:06.647Z,68.94
2017-03-15T00:03:06.682Z,69.04
2017-03-15T00:04:06.715Z,68.94
2017-03-15T00:05:06.735Z,69.35
2017-03-15T00:06:06.773Z,69.13
2017-03-15T00:07:06.825Z,68.56
2017-03-15T00:08:06.850Z,68.56
2017-03-15T00:09:06.892Z,68.56
2017-03-15T00:10:06.930Z,68.56
2017-03-15T00:11:06.950Z,68.65
2017-03-15T00:12:07.002Z,68.75
2017-03-15T00:13:07.322Z,68.84
2017-03-15T00:14:07.056Z,68.94
2017-03-15T00:15:07.107Z,68.75
2017-03-15T00:16:07.126Z,68.98
2017-03-15T00:17:07.161Z,68.75
2017-03-15T00:18:07.196Z,69.07
2017-03-15T00:19:07.234Z,68.98
2017-03-15T00:20:07.287Z,68.94
2017-03-15T00:21:07.308Z,68.94
2017-03-15T00:22:07.359Z,69.42
2017-03-15T00:23:07.400Z,69.35
2017-03-15T00:24:07.431Z,69.35
2017-03-15T00:25:07.749Z,69.45
2017-03-15T00:26:07.482Z,68.98
2017-03-15T00:27:07.537Z,69.07
2017-03-15T00:28:07.573Z,68.78
2017-03-15T00:29:07.604Z,69.23
2017-03-15T00:30:07.627Z,68.94
2017-03-15T00:31:07.679Z,69.54
2017-03-15T00:32:07.715Z,69.42
2017-03-15T00:33:07.750Z,68.98
2017-03-15T00:34:07.768Z,69.35
2017-03-15T00:35:07.804Z,69.45
2017-03-15T00:36:07.863Z,69.45
2017-03-15T00:37:07.891Z,69.54
2017-03-15T00:38:07.911Z,69.17
2017-03-15T00:39:07.947Z,69.35
2017-03-15T00:40:07.981Z,69.35
2017-03-15T00:41:08.036Z,69.45
2017-03-15T00:42:08.059Z,69.45
2017-03-15T00:43:08.413Z,69.45
2017-03-15T00:44:08.122Z,68.78
2017-03-15T00:45:08.160Z,69.35
2017-03-15T00:46:08.216Z,69.35
2017-03-15T00:47:08.237Z,69.35
2017-03-15T00:48:08.285Z,68.98
2017-03-15T00:49:08.632Z,69.26
2017-03-15T00:50:08.356Z,68.98
2017-03-15T00:51:08.391Z,68.98
2017-03-15T00:52:08.436Z,68.98
2017-03-15T00:53:08.452Z,68.98
2017-03-15T00:54:08.481Z,69.54
2017-03-15T00:55:08.606Z,69.45
2017-03-15T00:56:08.572Z,69.07
2017-03-15T00:57:08.613Z,69.35
2017-03-15T00:58:08.625Z,69.35
2017-03-15T00:59:08.663Z,69.35
2017-03-15T01:00:08.715Z,68.98
2017-03-15T01:01:08.740Z,69.07
2017-03-15T01:02:08.785Z,69.45
2017-03-15T01:03:08.804Z,68.98
2017-03-15T01:04:08.855Z,69.64
2017-03-15T01:05:08.894Z,69.26
2017-03-15T01:06:08.907Z,69.54
2017-03-15T01:07:09.269Z,68.88
2017-03-15T01:08:09.000Z,69.07
2017-03-15T01:09:09.034Z,68.98
2017-03-15T01:10:09.050Z,69.07
2017-03-15T01:11:09.106Z,69.17
2017-03-15T01:12:09.125Z,68.98
2017-03-15T01:13:09.176Z,68.88
2017-03-15T01:14:09.215Z,68.78
2017-03-15T01:15:09.233Z,68.78
2017-03-15T01:16:09.297Z,68.69
2017-03-15T01:17:09.324Z,68.59
2017-03-15T01:18:09.357Z,68.78
2017-03-15T01:19:09.375Z,68.78
2017-03-15T01:20:09.728Z,68.59
2017-03-15T01:21:09.463Z,68.69
2017-03-15T01:22:09.482Z,68.78
2017-03-15T01:23:09.537Z,68.78
2017-03-15T01:24:09.572Z,68.59
2017-03-15T01:25:09.605Z,68.59
2017-03-15T01:26:09.948Z,69.17
2017-03-15T01:27:09.663Z,68.78
2017-03-15T01:28:09.696Z,69.07
2017-03-15T01:29:09.758Z,68.78
2017-03-15T01:30:09.771Z,68.88
2017-03-15T01:31:09.804Z,69.07
2017-03-15T01:32:10.164Z,68.78
2017-03-15T01:33:09.876Z,68.88
2017-03-15T01:34:09.911Z,69.07
2017-03-15T01:35:09.965Z,69.07
2017-03-15T01:36:10.006Z,69.17
2017-03-15T01:37:10.023Z,68.98
2017-03-15T01:38:10.074Z,68.69
2017-03-15T01:39:10.092Z,68.98
2017-03-15T01:40:10.143Z,69.07
2017-03-15T01:41:10.165Z,68.88
2017-03-15T01:42:10.214Z,68.88
2017-03-15T01:43:10.234Z,68.5
2017-03-15T01:44:10.286Z,68.88
2017-03-15T01:45:10.306Z,68.88
2017-03-15T01:46:10.357Z,68.88
2017-03-15T01:47:10.377Z,69.17
2017-03-15T01:48:10.415Z,68.78
2017-03-15T01:49:10.466Z,69.07
2017-03-15T01:50:10.500Z,68.78
2017-03-15T01:51:10.536Z,68.78
2017-03-15T01:52:10.588Z,68.69
2017-03-15T01:53:10.915Z,68.78
2017-03-15T01:54:10.628Z,68.5
2017-03-15T01:55:10.678Z,68.4
2017-03-15T01:56:11.023Z,68.5
2017-03-15T01:57:10.734Z,68.5
2017-03-15T01:58:10.788Z,69.17
2017-03-15T01:59:10.836Z,68.3
2017-03-15T02:00:10.841Z,68.3
2017-03-15T02:01:10.894Z,69.26
2017-03-15T02:02:10.912Z,68.88
2017-03-15T02:03:10.968Z,68.59
2017-03-15T02:04:10.983Z,68.3
2017-03-15T02:05:11.022Z,68.59
2017-03-15T02:06:11.077Z,69.17
2017-03-15T02:07:11.102Z,68.3
2017-03-15T02:08:11.128Z,68.3
2017-03-15T02:09:11.181Z,68.4
2017-03-15T02:10:11.217Z,68.59
2017-03-15T02:11:11.236Z,68.5
2017-03-15T02:12:11.292Z,68.21
2017-03-15T02:13:11.307Z,68.5
2017-03-15T02:14:11.359Z,67.83
2017-03-15T02:15:11.376Z,68.12
2017-03-15T02:16:11.415Z,68.12
2017-03-15T02:17:11.468Z,68.78
2017-03-15T02:18:11.486Z,68.78
2017-03-15T02:19:11.540Z,68.59
2017-03-15T02:20:11.573Z,67.74
2017-03-15T02:21:11.916Z,67.93
2017-03-15T02:22:11.640Z,68.3
2017-03-15T02:23:11.660Z,68.02
2017-03-15T02:24:11.699Z,68.59
2017-03-15T02:25:11.753Z,68.78
2017-03-15T02:26:11.785Z,68.78
2017-03-15T02:27:11.811Z,68.78
2017-03-15T02:28:11.859Z,68.59
2017-03-15T02:29:11.896Z,68.4
2017-03-15T02:30:11.929Z,67.83
2017-03-15T02:31:11.953Z,68.4
2017-03-15T02:32:12.003Z,68.5
2017-03-15T02:33:12.038Z,68.21
2017-03-15T02:34:12.057Z,68.12
2017-03-15T02:35:12.395Z,68.4
2017-03-15T02:36:12.454Z,67.74
2017-03-15T02:37:12.183Z,68.3
2017-03-15T02:38:12.218Z,68.12
2017-03-15T02:39:12.255Z,68.59
2017-03-15T02:40:12.270Z,68.21
2017-03-15T02:41:12.307Z,67.83
2017-03-15T02:42:12.346Z,68.12
2017-03-15T02:43:12.398Z,68.12
2017-03-15T02:44:12.433Z,68.4
2017-03-15T02:45:12.468Z,68.3
2017-03-15T02:46:12.488Z,68.69
2017-03-15T02:47:12.543Z,68.69
2017-03-15T02:48:12.558Z,68.59
2017-03-15T02:49:12.611Z,68.4
2017-03-15T02:50:12.631Z,68.59
2017-03-15T02:51:12.667Z,68.4
2017-03-15T02:52:12.719Z,68.59
2017-03-15T02:53:12.752Z,68.59
2017-03-15T02:54:12.790Z,68.5
2017-03-15T02:55:12.825Z,68.5
2017-03-15T02:56:13.146Z,68.59
2017-03-15T02:57:12.880Z,68.3
2017-03-15T02:58:12.937Z,68.3
2017-03-15T02:59:12.970Z,68.59
2017-03-15T03:00:12.987Z,68.5
2017-03-15T03:01:13.025Z,68.59
2017-03-15T03:02:13.059Z,69.17
2017-03-15T03:03:13.114Z,68.5
2017-03-15T03:04:13.129Z,68.88
2017-03-15T03:05:13.186Z,68.3
2017-03-15T03:06:13.203Z,68.21
2017-03-15T03:07:13.255Z,68.69
2017-03-15T03:08:13.274Z,68.4
2017-03-15T03:09:13.318Z,68.59
2017-03-15T03:10:13.371Z,68.5
2017-03-15T03:11:13.381Z,68.3
2017-03-15T03:12:13.416Z,68.88
2017-03-15T03:13:13.454Z,68.5
2017-03-15T03:14:13.513Z,68.5
2017-03-15T03:15:13.526Z,68.59
2017-03-15T03:16:13.575Z,68.4
2017-03-15T03:17:13.594Z,68.5
2017-03-15T03:18:13.647Z,68.3
2017-03-15T03:19:13.685Z,68.69
2017-03-15T03:20:13.705Z,68.59
2017-03-15T03:21:13.756Z,68.3
2017-03-15T03:22:13.773Z,68.59
2017-03-15T03:23:13.811Z,68.4
2017-03-15T03:24:13.884Z,68.98
2017-03-15T03:25:13.899Z,68.98
2017-03-15T03:26:14.257Z,68.88
2017-03-15T03:27:13.953Z,68.98
2017-03-15T03:28:14.012Z,68.5
2017-03-15T03:29:14.042Z,69.07
2017-03-15T03:30:14.082Z,68.88
2017-03-15T03:31:14.098Z,68.88
2017-03-15T03:32:14.149Z,69.07
2017-03-15T03:33:14.187Z,69.17
2017-03-15T03:34:14.510Z,68.88
2017-03-15T03:35:14.257Z,68.98
2017-03-15T03:36:14.278Z,68.88
2017-03-15T03:37:14.329Z,69.17
2017-03-15T03:38:14.367Z,68.98
2017-03-15T03:39:14.401Z,68.78
2017-03-15T03:40:14.435Z,69.07
2017-03-15T03:41:14.471Z,68.88
2017-03-15T03:42:14.794Z,68.78
2017-03-15T03:43:14.526Z,69.26
2017-03-15T03:44:14.581Z,68.98
2017-03-15T03:45:14.603Z,69.74
2017-03-15T03:46:14.636Z,69.07
2017-03-15T03:47:14.669Z,69.26
2017-03-15T03:48:14.725Z,69.26
2017-03-15T03:49:14.760Z,69.54
2017-03-15T03:50:14.797Z,69.35
2017-03-15T03:51:14.825Z,69.26
2017-03-15T03:52:14.866Z,69.35
2017-03-15T03:53:14.900Z,69.26
2017-03-15T03:54:14.938Z,69.26
2017-03-15T03:55:15.281Z,69.35
2017-03-15T03:56:15.007Z,69.07
2017-03-15T03:57:15.045Z,69.35
2017-03-15T03:58:15.061Z,69.83
2017-03-15T03:59:15.121Z,69.64
2017-03-15T04:00:15.463Z,69.64
2017-03-15T04:01:15.170Z,69.54
2017-03-15T04:02:15.214Z,69.64
2017-03-15T04:03:15.259Z,69.54
2017-03-15T04:04:15.297Z,70.02
2017-03-15T04:05:15.343Z,70.02
2017-03-15T04:06:15.353Z,70.21
2017-03-15T04:07:15.400Z,70.12
2017-03-15T04:08:15.423Z,70.02
2017-03-15T04:09:15.478Z,69.93
2017-03-15T04:10:15.493Z,70.02
2017-03-15T04:11:15.560Z,70.12
2017-03-15T04:12:15.566Z,69.83
2017-03-15T04:13:15.616Z,70.12
2017-03-15T04:14:15.654Z,70.12
2017-03-15T04:15:15.675Z,70.02
2017-03-15T04:16:15.714Z,70.12
2017-03-15T04:17:15.744Z,70.02
2017-03-15T04:18:15.798Z,70.69
2017-03-15T04:19:15.839Z,70.78
2017-03-15T04:20:15.850Z,70.88
2017-03-15T04:21:15.887Z,70.5
2017-03-15T04:22:15.937Z,70.97
2017-03-15T04:23:15.975Z,70.97
2017-03-15T04:24:15.994Z,70.78
2017-03-15T04:25:16.030Z,70.78
2017-03-15T04:26:16.066Z,70.69
2017-03-15T04:27:16.110Z,70.78
2017-03-15T04:28:16.155Z,70.78
2017-03-15T04:29:16.173Z,71.26
2017-03-15T04:30:16.209Z,70.97
2017-03-15T04:31:16.262Z,71.26
2017-03-15T04:32:16.300Z,71.36
2017-03-15T04:33:16.640Z,71.17
2017-03-15T04:34:16.351Z,70.97
2017-03-15T04:35:16.692Z,71.07
2017-03-15T04:36:16.424Z,71.17
2017-03-15T04:37:16.459Z,71.17
2017-03-15T04:38:16.493Z,71.17
2017-03-15T04:39:16.558Z,71.26
2017-03-15T04:40:16.594Z,71.83
2017-03-15T04:41:16.603Z,71.83
2017-03-15T04:42:16.657Z,71.93
2017-03-15T04:43:16.692Z,71.45
2017-03-15T04:44:16.709Z,71.45
2017-03-15T04:45:16.748Z,71.55
2017-03-15T04:46:16.812Z,71.93
2017-03-15T04:47:16.837Z,71.93
2017-03-15T04:48:16.874Z,71.93
2017-03-15T04:49:16.888Z,71.93
2017-03-15T04:50:16.944Z,71.73
2017-03-15T04:51:16.992Z,71.93
2017-03-15T04:52:17.016Z,71.83
2017-03-15T04:53:17.050Z,72.02
2017-03-15T04:54:17.375Z,72.02
2017-03-15T04:55:17.124Z,71.93
2017-03-15T04:56:17.156Z,71.93
2017-03-15T04:57:17.193Z,71.73
2017-03-15T04:58:17.232Z,71.83
2017-03-15T04:59:17.266Z,72.31
2017-03-15T05:00:17.284Z,72.02
2017-03-15T05:01:17.338Z,72.02
2017-03-15T05:02:17.359Z,71.93
2017-03-15T05:03:17.395Z,72.02
2017-03-15T05:04:17.446Z,71.93
2017-03-15T05:05:17.480Z,71.93
2017-03-15T05:06:17.503Z,71.93
2017-03-15T05:07:17.552Z,71.83
2017-03-15T05:08:17.571Z,71.83
2017-03-15T05:09:17.627Z,72.21
2017-03-15T05:10:17.640Z,72.41
2017-03-15T05:11:17.679Z,72.88
2017-03-15T05:12:17.718Z,72.5
2017-03-15T05:13:17.749Z,72.41
2017-03-15T05:14:17.792Z,72.69
2017-03-15T05:15:17.821Z,72.69
2017-03-15T05:16:18.188Z,72.78
2017-03-15T05:17:17.908Z,72.69
2017-03-15T05:18:18.240Z,72.6
2017-03-15T05:19:17.981Z,72.6
2017-03-15T05:20:18.001Z,72.69
2017-03-15T05:21:18.037Z,72.69
2017-03-15T05:22:18.089Z,72.78
2017-03-15T05:23:18.408Z,72.88
2017-03-15T05:24:18.159Z,72.5
2017-03-15T05:25:18.178Z,72.5
2017-03-15T05:26:18.224Z,72.6
2017-03-15T05:27:18.267Z,73.17
2017-03-15T05:28:18.587Z,72.5
2017-03-15T05:29:18.342Z,73.07
2017-03-15T05:30:18.374Z,72.6
2017-03-15T05:31:18.410Z,73.07
2017-03-15T05:32:18.445Z,72.97
2017-03-15T05:33:18.481Z,72.97
2017-03-15T05:34:18.497Z,72.97
2017-03-15T05:35:18.537Z,72.88
2017-03-15T05:36:18.587Z,72.69
2017-03-15T05:37:18.609Z,72.69
2017-03-15T05:38:18.646Z,72.6
2017-03-15T05:39:18.692Z,72.97
2017-03-15T05:40:18.731Z,73.17
2017-03-15T05:41:18.765Z,72.78
2017-03-15T05:42:18.783Z,73.17
2017-03-15T05:43:18.822Z,73.07
2017-03-15T05:44:18.875Z,73.26
2017-03-15T05:45:18.908Z,72.88
2017-03-15T05:46:18.946Z,73.17
2017-03-15T05:47:18.981Z,73.55
2017-03-15T05:48:19.034Z,73.17
2017-03-15T05:49:19.037Z,73.36
2017-03-15T05:50:19.090Z,73.26
2017-03-15T05:51:19.106Z,72.97
2017-03-15T05:52:19.145Z,73.07
2017-03-15T05:53:19.480Z,73.07
2017-03-15T05:54:19.214Z,73.07
2017-03-15T05:55:19.271Z,72.97
2017-03-15T05:56:19.310Z,72.88
2017-03-15T05:57:19.338Z,73.07
2017-03-15T05:58:19.359Z,73.26
2017-03-15T05:59:19.396Z,73.55
2017-03-15T06:00:19.443Z,73.55
2017-03-15T06:01:19.480Z,73.8
2017-03-15T06:02:19.503Z,73.41
2017-03-15T06:03:19.537Z,73.51
2017-03-15T06:04:19.875Z,73.17
2017-03-15T06:05:19.931Z,73.45
2017-03-15T06:06:19.643Z,74.08
2017-03-15T06:07:19.681Z,73.8
2017-03-15T06:08:19.735Z,73.89
2017-03-15T06:09:19.750Z,73.8
2017-03-15T06:10:19.787Z,73.89
2017-03-15T06:11:19.820Z,73.89
2017-03-15T06:12:19.877Z,73.74
2017-03-15T06:13:19.892Z,73.93
2017-03-15T06:14:20.458Z,74.5
2017-03-15T06:15:19.963Z,74.5
2017-03-15T06:16:20.009Z,73.93
2017-03-15T06:17:20.054Z,74.31
2017-03-15T06:18:20.080Z,73.93
2017-03-15T06:19:20.110Z,74.21
2017-03-15T06:20:20.144Z,74.31
2017-03-15T06:21:20.179Z,74.12
2017-03-15T06:22:20.216Z,73.74
2017-03-15T06:23:20.553Z,74.21
2017-03-15T06:24:20.293Z,74.31
2017-03-15T06:25:20.346Z,74.21
2017-03-15T06:26:20.376Z,74.6
2017-03-15T06:27:20.397Z,74.69
2017-03-15T06:28:20.430Z,74.69
2017-03-15T06:29:20.465Z,74.6
2017-03-15T06:30:20.519Z,74.12
2017-03-15T06:31:20.554Z,74.69
2017-03-15T06:32:20.895Z,74.6
2017-03-15T06:33:20.626Z,74.69
2017-03-15T06:34:20.665Z,73.93
2017-03-15T06:35:20.681Z,74.5
2017-03-15T06:36:21.020Z,74.12
2017-03-15T06:37:20.768Z,74.69
2017-03-15T06:38:20.808Z,74.4
2017-03-15T06:39:21.139Z,74.31
2017-03-15T06:40:20.860Z,74.4
2017-03-15T06:41:21.203Z,74.79
2017-03-15T06:42:20.947Z,74.12
2017-03-15T06:43:20.970Z,74.6
2017-03-15T06:44:21.025Z,74.79
2017-03-15T06:45:21.037Z,74.21
2017-03-15T06:46:21.090Z,74.69
2017-03-15T06:47:21.123Z,74.69
2017-03-15T06:48:21.451Z,74.79
2017-03-15T06:49:21.199Z,74.6
2017-03-15T06:50:21.241Z,74.69
2017-03-15T06:51:21.256Z,74.69
2017-03-15T06:52:21.594Z,74.6
2017-03-15T06:53:21.327Z,74.6
2017-03-15T06:54:21.360Z,74.79
2017-03-15T06:55:21.397Z,74.69
2017-03-15T06:56:21.441Z,74.82
2017-03-15T06:57:21.488Z,74.82
2017-03-15T06:58:21.525Z,74.73
2017-03-15T06:59:21.546Z,74.63
2017-03-15T07:00:21.608Z,74.63
2017-03-15T07:01:21.617Z,74.44
2017-03-15T07:02:21.652Z,74.25
2017-03-15T07:03:21.994Z,74.16
2017-03-15T07:04:21.797Z,74.44
2017-03-15T07:05:22.001Z,74.54
2017-03-15T07:06:21.812Z,74.16
2017-03-15T07:07:21.838Z,74.35
2017-03-15T07:08:21.968Z,74.35
2017-03-15T07:09:21.922Z,74.35
2017-03-15T07:10:21.987Z,74.25
2017-03-15T07:11:22.000Z,74.35
2017-03-15T07:12:22.043Z,74.44
2017-03-15T07:13:22.104Z,74.63
2017-03-15T07:14:22.092Z,74.38
2017-03-15T07:15:22.215Z,73.91
2017-03-15T07:16:22.162Z,74.67
2017-03-15T07:17:22.219Z,74.32
2017-03-15T07:18:22.260Z,74.04
2017-03-15T07:19:22.294Z,73.75
2017-03-15T07:20:22.318Z,73.79
2017-03-15T07:21:22.353Z,73.12
2017-03-15T07:22:22.406Z,73.5
2017-03-15T07:23:22.444Z,72.11
2017-03-15T07:24:22.461Z,72.01
2017-03-15T07:25:22.501Z,71.63
2017-03-15T07:26:22.554Z,71.34
2017-03-15T07:27:22.582Z,71.92
2017-03-15T07:28:22.616Z,70.48
2017-03-15T07:29:22.670Z,71.06
2017-03-15T07:30:22.705Z,70.87
2017-03-15T07:31:22.746Z,70.96
2017-03-15T07:32:22.787Z,71
2017-03-15T07:33:22.812Z,71
2017-03-15T07:34:22.847Z,71.67
2017-03-15T07:35:22.913Z,70.75
2017-03-15T07:36:22.918Z,70.3
2017-03-15T07:37:22.975Z,69.73
2017-03-15T07:38:23.016Z,69.19
2017-03-15T07:39:23.038Z,69.03
2017-03-15T07:40:23.076Z,67.69
2017-03-15T07:41:23.132Z,67.11
2017-03-15T07:42:23.179Z,66.77
2017-03-15T07:43:23.195Z,66.77
2017-03-15T07:44:23.274Z,66.29
2017-03-15T07:45:23.293Z,66.03
2017-03-15T07:46:23.332Z,65.65
2017-03-15T07:47:23.372Z,64.69
2017-03-15T07:48:23.398Z,64.25
2017-03-15T07:49:23.438Z,64.15
2017-03-15T07:50:23.477Z,63.96
2017-03-15T07:51:24.261Z,63.03
2017-03-15T07:52:23.821Z,63.42
2017-03-15T07:53:23.622Z,61.62
2017-03-15T07:54:23.668Z,61.52
2017-03-15T07:55:23.679Z,60.66
2017-03-15T07:56:23.716Z,60.18
2017-03-15T07:57:23.774Z,60.18
2017-03-15T07:58:23.818Z,59.89
2017-03-15T07:59:23.839Z,59.61
2017-03-15T08:00:23.881Z,59.29
2017-03-15T08:01:23.921Z,59.48
2017-03-15T08:02:23.963Z,58.81
2017-03-15T08:03:24.001Z,58.42
2017-03-15T08:04:24.052Z,58.39
2017-03-15T08:05:24.100Z,58.3
2017-03-15T08:06:24.122Z,58.11
2017-03-15T08:07:24.180Z,57.79
2017-03-15T08:08:24.205Z,58.08
2017-03-15T08:09:24.264Z,58.08
2017-03-15T08:10:24.286Z,58.27
2017-03-15T08:11:24.326Z,57.76
2017-03-15T08:12:24.366Z,58.05
2017-03-15T08:13:24.407Z,57.67
2017-03-15T08:14:25.526Z,57.92
2017-03-15T08:15:24.493Z,58.02
2017-03-15T08:16:24.525Z,57.54
2017-03-15T08:17:24.659Z,58.12
2017-03-15T08:18:24.906Z,58.22
2017-03-15T08:19:24.642Z,58.59
2017-03-15T08:20:24.684Z,58.59
2017-03-15T08:21:24.723Z,58.69
2017-03-15T08:22:24.765Z,58.4
2017-03-15T08:23:25.110Z,58.22
2017-03-15T08:24:25.167Z,58.12
2017-03-15T08:25:24.922Z,57.99
2017-03-15T08:26:24.921Z,57.99
2017-03-15T08:27:24.979Z,57.9
2017-03-15T08:28:25.026Z,57.7
2017-03-15T08:29:25.061Z,58.09
2017-03-15T08:30:25.095Z,58.28
2017-03-15T08:31:25.121Z,58.56
2017-03-15T08:32:25.160Z,58.76
2017-03-15T08:33:25.198Z,59.05
2017-03-15T08:34:25.241Z,58.95
2017-03-15T08:35:25.276Z,58.86
2017-03-15T08:36:25.317Z,58.79
2017-03-15T08:37:25.358Z,58.79
2017-03-15T08:38:25.420Z,58.76
2017-03-15T08:39:25.459Z,58.5
2017-03-15T08:40:25.494Z,58.69
2017-03-15T08:41:25.531Z,58.69
2017-03-15T08:42:25.576Z,58.4
2017-03-15T08:43:25.612Z,58.79
2017-03-15T08:44:25.659Z,58.31
2017-03-15T08:45:25.696Z,57.67
2017-03-15T08:46:25.715Z,58.05
2017-03-15T08:47:25.755Z,57.5
2017-03-15T08:48:25.814Z,56.74
2017-03-15T08:49:25.857Z,57.12
2017-03-15T08:50:25.887Z,57.06
2017-03-15T08:51:25.938Z,56.98
2017-03-15T08:52:25.994Z,56.34
2017-03-15T08:53:26.006Z,55.77
2017-03-15T08:54:26.067Z,54.93
2017-03-15T08:55:26.108Z,54.64
2017-03-15T08:56:26.281Z,55.34
2017-03-15T08:57:26.177Z,54.5
2017-03-15T08:58:26.219Z,54.05
2017-03-15T08:59:26.277Z,53.02
2017-03-15T09:00:26.339Z,51.19
2017-03-15T09:01:26.345Z,50.73
2017-03-15T09:02:26.414Z,49.48
2017-03-15T09:03:26.461Z,49.87
2017-03-15T09:04:26.479Z,48.52
2017-03-15T09:05:26.524Z,48.13
2017-03-15T09:06:26.576Z,47.56
2017-03-15T09:07:26.627Z,47.08
2017-03-15T09:08:26.675Z,47.56
2017-03-15T09:09:26.774Z,46.95
2017-03-15T09:10:26.747Z,46.19
2017-03-15T09:11:26.789Z,46.45
2017-03-15T09:12:26.831Z,46.74
2017-03-15T09:13:26.890Z,47.7
2017-03-15T09:14:26.929Z,47.2
2017-03-15T09:15:26.987Z,47.31
2017-03-15T09:16:27.062Z,47.41
2017-03-15T09:17:27.072Z,46.67
2017-03-15T09:18:27.404Z,45.7
2017-03-15T09:19:27.163Z,45.8
2017-03-15T09:20:27.213Z,45.61
2017-03-15T09:21:27.324Z,45.13
2017-03-15T09:22:27.296Z,45.03
2017-03-15T09:23:27.324Z,44.34
2017-03-15T09:24:27.370Z,44.43
2017-03-15T09:25:27.455Z,44.99
2017-03-15T09:26:27.458Z,44.99
2017-03-15T09:27:27.860Z,44.96
2017-03-15T09:28:27.564Z,45.23
2017-03-15T09:29:27.584Z,45.71
2017-03-15T09:30:27.954Z,45.68
2017-03-15T09:31:27.683Z,46.36
2017-03-15T09:32:27.710Z,46.74
2017-03-15T09:33:27.769Z,46.84
2017-03-15T09:34:27.812Z,46.55
2017-03-15T09:35:27.838Z,46.65
2017-03-15T09:36:28.184Z,46.74
2017-03-15T09:37:27.928Z,46.74
2017-03-15T09:38:28.294Z,47.32
2017-03-15T09:39:28.023Z,47.41
2017-03-15T09:40:28.066Z,47.39
2017-03-15T09:41:28.088Z,47.3
2017-03-15T09:42:28.148Z,47.77
2017-03-15T09:43:28.192Z,47.77
2017-03-15T09:44:28.218Z,47.39
2017-03-15T09:45:28.261Z,47.58
2017-03-15T09:46:28.299Z,48.44
2017-03-15T09:47:28.421Z,48.52
2017-03-15T09:48:28.399Z,48.43
2017-03-15T09:49:28.440Z,49.1
2017-03-15T09:50:28.467Z,48.78
2017-03-15T09:51:28.524Z,49.07
2017-03-15T09:52:28.545Z,49.36
2017-03-15T09:53:28.588Z,49.91
2017-03-15T09:54:28.646Z,50.2
2017-03-15T09:55:28.686Z,50.87
2017-03-15T09:56:28.710Z,50.67
2017-03-15T09:57:28.754Z,50.93
2017-03-15T09:58:28.814Z,51.7
2017-03-15T09:59:28.877Z,51.79
2017-03-15T10:00:29.847Z,52.09
2017-03-15T10:01:29.238Z,51.73
2017-03-15T10:02:28.973Z,52.3
2017-03-15T10:03:29.015Z,52.42
2017-03-15T10:04:29.061Z,52.33
2017-03-15T10:05:29.099Z,51.68
2017-03-15T10:06:29.143Z,51.4
2017-03-15T10:07:29.170Z,51.04
2017-03-15T10:08:29.222Z,51.23
2017-03-15T10:09:29.277Z,51.06
2017-03-15T10:10:29.628Z,50.49
2017-03-15T10:11:29.346Z,49.26
2017-03-15T10:12:29.409Z,50.03
2017-03-15T10:13:29.440Z,50.42
2017-03-15T10:14:29.502Z,49.46
2017-03-15T10:15:29.547Z,49.87
2017-03-15T10:16:29.594Z,49.57
2017-03-15T10:17:29.928Z,48.25
2017-03-15T10:18:29.666Z,47.77
2017-03-15T10:19:29.715Z,47.58
2017-03-15T10:20:29.764Z,46.62
2017-03-15T10:21:29.803Z,46.89
2017-03-15T10:22:29.871Z,46.5
2017-03-15T10:23:30.199Z,46.79
2017-03-15T10:24:30.008Z,46.77
2017-03-15T10:25:30.293Z,47.25
2017-03-15T10:26:30.034Z,46.86
2017-03-15T10:27:30.092Z,46.67
2017-03-15T10:28:30.131Z,46.69
2017-03-15T10:29:30.191Z,46.59
2017-03-15T10:30:30.236Z,46.59
2017-03-15T10:31:30.304Z,46.02
2017-03-15T10:32:30.321Z,45.76
2017-03-15T10:33:30.378Z,45.85
2017-03-15T10:34:30.445Z,45.76
2017-03-15T10:35:30.463Z,44.99
2017-03-15T10:36:30.531Z,45.18
2017-03-15T10:37:30.561Z,44.14
2017-03-15T10:38:30.625Z,43.57
2017-03-15T10:39:30.660Z,43.85
2017-03-15T10:40:30.712Z,43.28
2017-03-15T10:41:30.777Z,42.89
2017-03-15T10:42:30.823Z,42.7
2017-03-15T10:43:30.861Z,42.58
2017-03-15T10:44:30.920Z,43.18
2017-03-15T10:45:30.979Z,42.41
2017-03-15T10:46:31.025Z,42.5
2017-03-15T10:47:31.379Z,42.5
2017-03-15T10:48:31.107Z,42.03
2017-03-15T10:49:31.171Z,41.64
2017-03-15T10:50:31.211Z,41.16
2017-03-15T10:51:31.258Z,40.78
2017-03-15T10:52:31.326Z,41.06
2017-03-15T10:53:31.378Z,41.74
2017-03-15T10:54:31.443Z,40.88
2017-03-15T10:55:31.461Z,40.3
2017-03-15T10:56:31.514Z,40.49
2017-03-15T10:57:31.562Z,40.3
2017-03-15T10:58:31.611Z,40.22
2017-03-15T10:59:31.663Z,39.74
2017-03-15T11:00:31.725Z,39.43
2017-03-15T11:01:31.760Z,39.04
2017-03-15T11:02:31.811Z,39.24
2017-03-15T11:03:31.860Z,39.24
2017-03-15T11:04:31.923Z,39.04
2017-03-15T11:05:31.968Z,38.47
2017-03-15T11:06:32.010Z,37.97
2017-03-15T11:07:32.068Z,37.77
2017-03-15T11:08:32.112Z,37.47
2017-03-15T11:09:32.155Z,37.93
2017-03-15T11:10:32.191Z,38.22
2017-03-15T11:11:32.245Z,38.51
2017-03-15T11:12:32.298Z,38.39
2017-03-15T11:13:32.333Z,38.49
2017-03-15T11:14:32.403Z,38.49
2017-03-15T11:15:32.421Z,38.29
2017-03-15T11:16:32.468Z,38.59
2017-03-15T11:17:32.518Z,38.29
2017-03-15T11:18:32.574Z,38.29
2017-03-15T11:19:32.641Z,38.66
2017-03-15T11:20:32.667Z,38.56
2017-03-15T11:21:32.732Z,38.56
2017-03-15T11:22:32.743Z,39.14
2017-03-15T11:23:32.790Z,38.68
2017-03-15T11:24:32.849Z,38.68
2017-03-15T11:25:32.882Z,38.87
2017-03-15T11:26:32.945Z,38.95
2017-03-15T11:27:32.989Z,38.78
2017-03-15T11:28:33.021Z,39.45
2017-03-15T11:29:33.079Z,39.54
2017-03-15T11:30:33.125Z,38.87
2017-03-15T11:31:33.159Z,38.96
2017-03-15T11:32:33.227Z,38.87
2017-03-15T11:33:33.247Z,38.87
2017-03-15T11:34:33.304Z,38.59
2017-03-15T11:35:33.352Z,39.06
2017-03-15T11:36:33.381Z,38.87
2017-03-15T11:37:33.752Z,38.96
2017-03-15T11:38:33.795Z,38.39
2017-03-15T11:39:33.515Z,38.49
2017-03-15T11:40:33.561Z,38.68
2017-03-15T11:41:33.620Z,38.59
2017-03-15T11:42:33.667Z,38.29
2017-03-15T11:43:34.015Z,38.78
2017-03-15T11:44:34.043Z,38.01
2017-03-15T11:45:33.801Z,37.82
2017-03-15T11:46:33.845Z,38.2
2017-03-15T11:47:33.875Z,37.72
2017-03-15T11:48:33.930Z,37.62
2017-03-15T11:49:33.961Z,37.62
2017-03-15T11:50:34.004Z,37.24
2017-03-15T11:51:34.064Z,37.24
2017-03-15T11:52:34.106Z,37.62
2017-03-15T11:53:34.150Z,37.62
2017-03-15T11:54:34.182Z,37.62
2017-03-15T11:55:34.237Z,37.24
2017-03-15T11:56:34.266Z,37.15
2017-03-15T11:57:34.325Z,37.15
2017-03-15T11:58:34.369Z,37.24
2017-03-15T11:59:34.411Z,37.32
2017-03-15T12:00:34.457Z,37.22
2017-03-15T12:01:34.499Z,37.22
2017-03-15T12:02:34.527Z,37.22
2017-03-15T12:03:34.581Z,37.32
2017-03-15T12:04:34.612Z,37.51
2017-03-15T12:05:34.670Z,37.6
2017-03-15T12:06:35.005Z,37.32
2017-03-15T12:07:34.742Z,37.13
2017-03-15T12:08:34.782Z,36.93
2017-03-15T12:09:34.839Z,37.01
2017-03-15T12:10:34.881Z,36.63
2017-03-15T12:11:34.922Z,36.53
2017-03-15T12:12:34.962Z,36.24
2017-03-15T12:13:35.006Z,36.72
2017-03-15T12:14:35.047Z,36.72
2017-03-15T12:15:35.089Z,36.82
2017-03-15T12:16:35.131Z,37.49
2017-03-15T12:17:35.174Z,37.66
2017-03-15T12:18:35.199Z,37.47
2017-03-15T12:19:35.262Z,37.57
2017-03-15T12:20:35.283Z,37.28
2017-03-15T12:21:35.339Z,37.57
2017-03-15T12:22:35.382Z,37.66
2017-03-15T12:23:35.409Z,37.76
2017-03-15T12:24:35.466Z,37.85
2017-03-15T12:25:35.488Z,38.34
2017-03-15T12:26:35.531Z,38.24
2017-03-15T12:27:35.587Z,38.43
2017-03-15T12:28:35.629Z,38.53
2017-03-15T12:29:35.659Z,38.43
2017-03-15T12:30:35.694Z,38.24
2017-03-15T12:31:35.736Z,38.62
2017-03-15T12:32:35.790Z,38.34
2017-03-15T12:33:35.837Z,38.62
2017-03-15T12:34:35.857Z,38.62
2017-03-15T12:35:35.912Z,38.53
2017-03-15T12:36:36.044Z,42.27
2017-03-15T12:37:35.980Z,40.27
2017-03-15T12:38:36.021Z,39.04
2017-03-15T12:39:36.063Z,38.76
2017-03-15T12:40:36.101Z,38.56
2017-03-15T12:41:36.145Z,38.47
2017-03-15T12:42:36.184Z,38.37
2017-03-15T12:43:36.229Z,38.45
2017-03-15T12:44:36.277Z,38.35
2017-03-15T12:45:36.321Z,38.16
2017-03-15T12:46:36.360Z,38.16
2017-03-15T12:47:36.385Z,37.85
2017-03-15T12:48:36.441Z,37.85
2017-03-15T12:49:36.469Z,37.95
2017-03-15T12:50:36.522Z,37.95
2017-03-15T12:51:36.562Z,38.24
2017-03-15T12:52:36.927Z,38.43
2017-03-15T12:53:36.629Z,38.34
2017-03-15T12:54:36.684Z,38.14
2017-03-15T12:55:36.724Z,38.53